sensor_id;sensor_type;location;lat;lon;timestamp;pressure;altitude;pressure_sealevel;temperature;humidity
57234;BME280;43090;52.604;13.318;2024-03-22T00:01:51;101519.31;;;8.76;97.23
57234;BME280;43090;52.604;13.318;2024-03-22T00:04:17;101516.53;;;8.78;96.09
57234;BME280;43090;52.604;13.318;2024-03-22T00:06:46;101514.69;;;8.80;96.39
57234;BME280;43090;52.604;13.318;2024-03-22T00:09:12;101521.59;;;8.84;96.33
57234;BME280;43090;52.604;13.318;2024-03-22T00:11:42;101511.22;;;8.60;97.53
57234;BME280;43090;52.604;13.318;2024-03-22T00:14:11;101512.78;;;8.64;96.66
57234;BME280;43090;52.604;13.318;2024-03-22T00:16:40;101518.03;;;8.66;97.14
57234;BME280;43090;52.604;13.318;2024-03-22T00:19:05;101502.88;;;8.66;96.91
57234;BME280;43090;52.604;13.318;2024-03-22T00:21:31;101500.66;;;8.57;97.51
57234;BME280;43090;52.604;13.318;2024-03-22T00:23:57;101500.19;;;8.66;97.42
57234;BME280;43090;52.604;13.318;2024-03-22T00:26:22;101494.72;;;8.70;96.92
57234;BME280;43090;52.604;13.318;2024-03-22T00:28:48;101492.06;;;8.70;97.64
57234;BME280;43090;52.604;13.318;2024-03-22T00:31:14;101497.84;;;8.78;97.09
57234;BME280;43090;52.604;13.318;2024-03-22T00:33:40;101495.34;;;8.75;96.87
57234;BME280;43090;52.604;13.318;2024-03-22T00:36:06;101485.16;;;8.65;98.39
57234;BME280;43090;52.604;13.318;2024-03-22T00:38:31;101477.13;;;8.65;98.12
57234;BME280;43090;52.604;13.318;2024-03-22T00:40:57;101478.16;;;8.26;98.72
57234;BME280;43090;52.604;13.318;2024-03-22T00:43:23;101472.66;;;8.48;98.90
57234;BME280;43090;52.604;13.318;2024-03-22T00:45:48;101474.69;;;8.61;98.18
57234;BME280;43090;52.604;13.318;2024-03-22T00:48:14;101476.97;;;8.51;98.93
57234;BME280;43090;52.604;13.318;2024-03-22T00:50:39;101468.63;;;8.57;98.79
57234;BME280;43090;52.604;13.318;2024-03-22T00:53:05;101474.22;;;8.70;98.03
57234;BME280;43090;52.604;13.318;2024-03-22T00:55:33;101467.69;;;8.58;98.70
57234;BME280;43090;52.604;13.318;2024-03-22T00:57:58;101465.28;;;8.71;97.83
57234;BME280;43090;52.604;13.318;2024-03-22T01:00:24;101450.13;;;8.54;98.06
57234;BME280;43090;52.604;13.318;2024-03-22T01:02:50;101459.69;;;8.58;98.59
57234;BME280;43090;52.604;13.318;2024-03-22T01:05:16;101452.03;;;8.52;98.75
57234;BME280;43090;52.604;13.318;2024-03-22T01:07:42;101461.69;;;8.55;99.00
57234;BME280;43090;52.604;13.318;2024-03-22T01:10:07;101447.75;;;8.48;99.05
57234;BME280;43090;52.604;13.318;2024-03-22T01:12:36;101452.03;;;8.52;99.47
57234;BME280;43090;52.604;13.318;2024-03-22T01:15:02;101451.84;;;8.55;99.54
57234;BME280;43090;52.604;13.318;2024-03-22T01:17:28;101443.19;;;8.67;99.22
57234;BME280;43090;52.604;13.318;2024-03-22T01:19:54;101437.28;;;8.43;100.00
57234;BME280;43090;52.604;13.318;2024-03-22T01:22:20;101448.38;;;8.53;100.00
57234;BME280;43090;52.604;13.318;2024-03-22T01:24:45;101440.19;;;8.39;100.00
57234;BME280;43090;52.604;13.318;2024-03-22T01:27:11;101435.72;;;8.39;100.00
57234;BME280;43090;52.604;13.318;2024-03-22T01:29:37;101438.91;;;8.47;100.00
57234;BME280;43090;52.604;13.318;2024-03-22T01:32:03;101430.41;;;8.57;100.00
57234;BME280;43090;52.604;13.318;2024-03-22T01:34:28;101424.84;;;8.61;100.00
57234;BME280;43090;52.604;13.318;2024-03-22T01:36:54;101422.41;;;8.57;100.00
57234;BME280;43090;52.604;13.318;2024-03-22T01:39:20;101425.44;;;8.66;100.00
57234;BME280;43090;52.604;13.318;2024-03-22T01:41:49;101423.34;;;8.73;100.00
57234;BME280;43090;52.604;13.318;2024-03-22T01:44:15;101420.72;;;8.72;100.00
57234;BME280;43090;52.604;13.318;2024-03-22T01:46:41;101414.94;;;8.63;100.00
57234;BME280;43090;52.604;13.318;2024-03-22T01:49:16;101427.84;;;8.55;100.00
57234;BME280;43090;52.604;13.318;2024-03-22T01:51:42;101416.59;;;8.66;100.00
57234;BME280;43090;52.604;13.318;2024-03-22T01:54:09;101425.75;;;8.78;100.00
57234;BME280;43090;52.604;13.318;2024-03-22T01:56:39;101412.50;;;8.76;100.00
57234;BME280;43090;52.604;13.318;2024-03-22T01:59:06;101417.53;;;8.82;100.00
57234;BME280;43090;52.604;13.318;2024-03-22T02:01:32;101388.91;;;8.51;100.00
57234;BME280;43090;52.604;13.318;2024-03-22T02:03:58;101414.16;;;8.79;100.00
57234;BME280;43090;52.604;13.318;2024-03-22T02:06:23;101395.72;;;8.57;100.00
57234;BME280;43090;52.604;13.318;2024-03-22T02:08:49;101398.34;;;8.74;100.00
57234;BME280;43090;52.604;13.318;2024-03-22T02:11:15;101397.06;;;8.65;100.00
57234;BME280;43090;52.604;13.318;2024-03-22T02:13:40;101403.00;;;8.71;100.00
57234;BME280;43090;52.604;13.318;2024-03-22T02:16:06;101403.63;;;8.76;100.00
57234;BME280;43090;52.604;13.318;2024-03-22T02:18:32;101392.06;;;8.75;100.00
57234;BME280;43090;52.604;13.318;2024-03-22T02:20:57;101391.50;;;8.86;100.00
57234;BME280;43090;52.604;13.318;2024-03-22T02:23:33;101379.06;;;8.52;100.00
57234;BME280;43090;52.604;13.318;2024-03-22T02:26:00;101362.88;;;8.72;100.00
57234;BME280;43090;52.604;13.318;2024-03-22T02:28:26;101376.63;;;8.64;100.00
57234;BME280;43090;52.604;13.318;2024-03-22T02:46:31;101331.41;;;7.74;100.00
57234;BME280;43090;52.604;13.318;2024-03-22T02:48:56;101320.78;;;7.91;100.00
57234;BME280;43090;52.604;13.318;2024-03-22T02:51:22;101319.81;;;8.27;100.00
57234;BME280;43090;52.604;13.318;2024-03-22T02:53:48;101315.63;;;8.06;100.00
57234;BME280;43090;52.604;13.318;2024-03-22T02:56:13;101311.75;;;8.11;100.00
57234;BME280;43090;52.604;13.318;2024-03-22T02:58:39;101323.81;;;8.36;100.00
57234;BME280;43090;52.604;13.318;2024-03-22T03:01:04;101312.69;;;8.45;100.00
57234;BME280;43090;52.604;13.318;2024-03-22T03:03:31;101323.94;;;8.68;100.00
57234;BME280;43090;52.604;13.318;2024-03-22T03:05:56;101319.66;;;8.48;100.00
57234;BME280;43090;52.604;13.318;2024-03-22T03:08:22;101316.78;;;8.69;100.00
57234;BME280;43090;52.604;13.318;2024-03-22T03:10:47;101299.44;;;8.60;100.00
57234;BME280;43090;52.604;13.318;2024-03-22T03:13:13;101301.78;;;8.32;100.00
57234;BME280;43090;52.604;13.318;2024-03-22T03:15:38;101295.22;;;8.56;100.00
57234;BME280;43090;52.604;13.318;2024-03-22T03:18:04;101292.34;;;8.25;100.00
57234;BME280;43090;52.604;13.318;2024-03-22T03:20:30;101291.72;;;8.55;100.00
57234;BME280;43090;52.604;13.318;2024-03-22T03:22:55;101259.25;;;8.47;100.00
57234;BME280;43090;52.604;13.318;2024-03-22T03:25:25;101274.34;;;8.64;100.00
57234;BME280;43090;52.604;13.318;2024-03-22T03:27:51;101269.25;;;8.75;100.00
57234;BME280;43090;52.604;13.318;2024-03-22T03:30:17;101250.94;;;8.18;100.00
57234;BME280;43090;52.604;13.318;2024-03-22T03:32:42;101257.97;;;8.70;100.00
57234;BME280;43090;52.604;13.318;2024-03-22T03:35:08;101261.41;;;8.56;100.00
57234;BME280;43090;52.604;13.318;2024-03-22T03:37:33;101268.31;;;8.43;100.00
57234;BME280;43090;52.604;13.318;2024-03-22T03:39:59;101239.91;;;8.42;100.00
57234;BME280;43090;52.604;13.318;2024-03-22T03:42:24;101261.03;;;8.46;100.00
57234;BME280;43090;52.604;13.318;2024-03-22T03:44:50;101253.63;;;8.52;100.00
57234;BME280;43090;52.604;13.318;2024-03-22T03:47:15;101235.69;;;8.71;100.00
57234;BME280;43090;52.604;13.318;2024-03-22T03:49:41;101226.81;;;8.71;100.00
57234;BME280;43090;52.604;13.318;2024-03-22T03:52:06;101235.59;;;8.73;100.00
57234;BME280;43090;52.604;13.318;2024-03-22T03:54:32;101228.69;;;8.69;100.00
57234;BME280;43090;52.604;13.318;2024-03-22T03:56:57;101220.50;;;8.72;100.00
57234;BME280;43090;52.604;13.318;2024-03-22T03:59:23;101221.13;;;8.77;100.00
57234;BME280;43090;52.604;13.318;2024-03-22T04:01:49;101229.41;;;8.88;99.92
57234;BME280;43090;52.604;13.318;2024-03-22T04:04:14;101218.91;;;8.85;100.00
57234;BME280;43090;52.604;13.318;2024-03-22T04:06:40;101211.31;;;8.77;100.00
57234;BME280;43090;52.604;13.318;2024-03-22T04:09:05;101208.13;;;8.71;99.89
57234;BME280;43090;52.604;13.318;2024-03-22T04:11:31;101221.47;;;8.71;98.92
57234;BME280;43090;52.604;13.318;2024-03-22T04:13:56;101211.84;;;8.84;98.74
57234;BME280;43090;52.604;13.318;2024-03-22T04:16:22;101220.50;;;8.88;98.44
57234;BME280;43090;52.604;13.318;2024-03-22T04:18:47;101204.34;;;8.41;100.00
57234;BME280;43090;52.604;13.318;2024-03-22T04:21:13;101194.94;;;8.67;99.42
57234;BME280;43090;52.604;13.318;2024-03-22T04:23:38;101205.53;;;8.69;98.92
57234;BME280;43090;52.604;13.318;2024-03-22T04:26:04;101179.81;;;8.34;99.47
57234;BME280;43090;52.604;13.318;2024-03-22T04:28:30;101179.84;;;8.50;100.00
57234;BME280;43090;52.604;13.318;2024-03-22T04:30:58;101165.28;;;8.40;100.00
57234;BME280;43090;52.604;13.318;2024-03-22T04:33:23;101176.84;;;8.57;100.00
57234;BME280;43090;52.604;13.318;2024-03-22T04:35:49;101170.22;;;8.48;100.00
57234;BME280;43090;52.604;13.318;2024-03-22T04:38:14;101165.16;;;8.59;100.00
57234;BME280;43090;52.604;13.318;2024-03-22T04:40:40;101149.47;;;8.53;99.73
57234;BME280;43090;52.604;13.318;2024-03-22T04:43:06;101159.47;;;8.49;99.65
57234;BME280;43090;52.604;13.318;2024-03-22T04:45:32;101161.63;;;8.59;99.91
57234;BME280;43090;52.604;13.318;2024-03-22T04:47:57;101166.03;;;8.76;99.48
57234;BME280;43090;52.604;13.318;2024-03-22T04:50:23;101165.47;;;8.69;99.79
57234;BME280;43090;52.604;13.318;2024-03-22T04:52:48;101158.50;;;8.66;99.27
57234;BME280;43090;52.604;13.318;2024-03-22T04:55:14;101146.97;;;8.50;98.50
57234;BME280;43090;52.604;13.318;2024-03-22T04:57:39;101153.00;;;8.70;99.03
57234;BME280;43090;52.604;13.318;2024-03-22T05:00:05;101134.91;;;8.43;100.00
57234;BME280;43090;52.604;13.318;2024-03-22T05:02:36;101140.19;;;8.60;99.75
57234;BME280;43090;52.604;13.318;2024-03-22T05:05:02;101120.38;;;8.48;99.43
57234;BME280;43090;52.604;13.318;2024-03-22T05:07:28;101125.31;;;8.39;98.89
57234;BME280;43090;52.604;13.318;2024-03-22T05:09:54;101156.94;;;8.78;97.89
57234;BME280;43090;52.604;13.318;2024-03-22T05:12:22;101135.06;;;8.72;97.65
57234;BME280;43090;52.604;13.318;2024-03-22T05:14:48;101139.63;;;8.86;97.60
57234;BME280;43090;52.604;13.318;2024-03-22T05:17:13;101145.59;;;8.75;97.03
57234;BME280;43090;52.604;13.318;2024-03-22T05:19:39;101140.50;;;8.86;96.54
57234;BME280;43090;52.604;13.318;2024-03-22T05:22:04;101137.59;;;8.75;97.99
57234;BME280;43090;52.604;13.318;2024-03-22T05:24:31;101123.31;;;8.76;97.35
57234;BME280;43090;52.604;13.318;2024-03-22T05:26:58;101136.03;;;8.87;96.37
57234;BME280;43090;52.604;13.318;2024-03-22T05:29:23;101128.66;;;8.76;98.29
57234;BME280;43090;52.604;13.318;2024-03-22T05:31:49;101130.28;;;8.46;99.08
57234;BME280;43090;52.604;13.318;2024-03-22T05:34:19;101115.97;;;8.79;97.93
57234;BME280;43090;52.604;13.318;2024-03-22T05:36:45;101125.84;;;8.93;97.15
57234;BME280;43090;52.604;13.318;2024-03-22T05:39:11;101128.53;;;8.93;96.29
57234;BME280;43090;52.604;13.318;2024-03-22T05:41:37;101119.47;;;8.96;95.94
57234;BME280;43090;52.604;13.318;2024-03-22T05:44:03;101105.97;;;8.83;96.53
57234;BME280;43090;52.604;13.318;2024-03-22T05:46:29;101103.44;;;8.96;95.94
57234;BME280;43090;52.604;13.318;2024-03-22T05:48:56;101097.81;;;9.00;95.39
57234;BME280;43090;52.604;13.318;2024-03-22T05:51:22;101107.81;;;9.13;95.78
57234;BME280;43090;52.604;13.318;2024-03-22T05:53:47;101089.91;;;8.99;95.55
57234;BME280;43090;52.604;13.318;2024-03-22T05:56:13;101088.13;;;9.14;94.40
57234;BME280;43090;52.604;13.318;2024-03-22T05:58:39;101098.94;;;9.27;94.11
57234;BME280;43090;52.604;13.318;2024-03-22T06:01:05;101092.72;;;9.12;94.14
57234;BME280;43090;52.604;13.318;2024-03-22T06:03:31;101080.59;;;9.21;93.54
57234;BME280;43090;52.604;13.318;2024-03-22T06:06:00;101087.88;;;9.19;93.23
57234;BME280;43090;52.604;13.318;2024-03-22T06:08:26;101077.50;;;9.43;92.31
57234;BME280;43090;52.604;13.318;2024-03-22T06:10:55;101078.97;;;9.18;91.95
57234;BME280;43090;52.604;13.318;2024-03-22T06:13:24;101073.84;;;9.29;91.76
57234;BME280;43090;52.604;13.318;2024-03-22T06:15:50;101071.56;;;9.23;92.38
57234;BME280;43090;52.604;13.318;2024-03-22T06:18:15;101069.38;;;9.30;92.09
57234;BME280;43090;52.604;13.318;2024-03-22T06:20:41;101065.44;;;9.21;91.42
57234;BME280;43090;52.604;13.318;2024-03-22T06:23:10;101073.75;;;9.31;92.19
57234;BME280;43090;52.604;13.318;2024-03-22T06:25:36;101048.56;;;8.76;93.08
57234;BME280;43090;52.604;13.318;2024-03-22T06:28:02;101067.81;;;9.11;91.93
57234;BME280;43090;52.604;13.318;2024-03-22T06:30:27;101067.56;;;9.30;91.59
57234;BME280;43090;52.604;13.318;2024-03-22T06:32:53;101063.28;;;8.97;91.57
57234;BME280;43090;52.604;13.318;2024-03-22T06:35:20;101051.03;;;9.09;91.75
57234;BME280;43090;52.604;13.318;2024-03-22T06:37:46;101045.97;;;9.19;91.72
57234;BME280;43090;52.604;13.318;2024-03-22T06:40:13;101039.88;;;9.17;91.36
57234;BME280;43090;52.604;13.318;2024-03-22T06:42:39;101028.91;;;9.22;90.95
57234;BME280;43090;52.604;13.318;2024-03-22T06:45:05;101048.06;;;9.14;89.87
57234;BME280;43090;52.604;13.318;2024-03-22T06:47:30;101030.09;;;9.02;92.60
57234;BME280;43090;52.604;13.318;2024-03-22T06:49:56;101052.00;;;9.23;91.35
57234;BME280;43090;52.604;13.318;2024-03-22T06:52:22;101033.00;;;9.13;92.56
57234;BME280;43090;52.604;13.318;2024-03-22T06:54:47;101032.50;;;9.21;91.11
57234;BME280;43090;52.604;13.318;2024-03-22T06:57:13;101045.72;;;9.38;91.82
57234;BME280;43090;52.604;13.318;2024-03-22T06:59:38;101033.75;;;9.15;91.99
57234;BME280;43090;52.604;13.318;2024-03-22T07:02:04;101035.22;;;9.35;90.71
57234;BME280;43090;52.604;13.318;2024-03-22T07:04:29;101016.81;;;9.59;89.60
57234;BME280;43090;52.604;13.318;2024-03-22T07:06:55;101032.53;;;9.49;90.77
57234;BME280;43090;52.604;13.318;2024-03-22T07:09:21;101027.41;;;9.46;90.73
57234;BME280;43090;52.604;13.318;2024-03-22T07:11:47;101028.34;;;9.60;90.31
57234;BME280;43090;52.604;13.318;2024-03-22T07:14:13;101020.13;;;9.20;91.11
57234;BME280;43090;52.604;13.318;2024-03-22T07:16:38;101021.69;;;9.53;90.41
57234;BME280;43090;52.604;13.318;2024-03-22T07:19:04;101013.00;;;9.63;89.75
57234;BME280;43090;52.604;13.318;2024-03-22T07:21:30;101013.66;;;9.38;90.69
57234;BME280;43090;52.604;13.318;2024-03-22T07:23:56;101012.63;;;9.55;90.32
57234;BME280;43090;52.604;13.318;2024-03-22T07:26:21;101025.09;;;9.69;89.51
57234;BME280;43090;52.604;13.318;2024-03-22T07:28:47;101022.44;;;9.69;89.51
57234;BME280;43090;52.604;13.318;2024-03-22T07:31:12;101029.88;;;9.78;88.84
57234;BME280;43090;52.604;13.318;2024-03-22T07:33:39;101022.06;;;9.75;89.68
57234;BME280;43090;52.604;13.318;2024-03-22T07:36:05;101032.53;;;9.78;90.60
57234;BME280;43090;52.604;13.318;2024-03-22T07:38:33;101000.94;;;9.56;91.08
57234;BME280;43090;52.604;13.318;2024-03-22T07:40:59;101011.75;;;9.69;90.41
57234;BME280;43090;52.604;13.318;2024-03-22T07:43:24;100997.78;;;9.64;91.13
57234;BME280;43090;52.604;13.318;2024-03-22T07:45:50;101012.13;;;9.63;90.67
57234;BME280;43090;52.604;13.318;2024-03-22T07:48:15;101010.22;;;9.65;88.67
57234;BME280;43090;52.604;13.318;2024-03-22T07:50:41;101011.63;;;9.71;90.43
57234;BME280;43090;52.604;13.318;2024-03-22T07:53:07;100999.78;;;9.75;90.32
57234;BME280;43090;52.604;13.318;2024-03-22T07:55:33;101014.97;;;9.89;90.19
57234;BME280;43090;52.604;13.318;2024-03-22T07:57:59;100999.53;;;10.07;89.12
57234;BME280;43090;52.604;13.318;2024-03-22T08:00:24;101007.56;;;10.07;90.07
57234;BME280;43090;52.604;13.318;2024-03-22T08:02:52;100999.16;;;9.98;89.21
57234;BME280;43090;52.604;13.318;2024-03-22T08:05:18;101005.25;;;10.15;88.44
57234;BME280;43090;52.604;13.318;2024-03-22T08:07:45;100995.88;;;10.22;88.17
57234;BME280;43090;52.604;13.318;2024-03-22T08:10:10;101000.09;;;10.12;87.90
57234;BME280;43090;52.604;13.318;2024-03-22T08:12:36;101001.44;;;10.19;89.05
57234;BME280;43090;52.604;13.318;2024-03-22T08:15:02;101000.94;;;10.27;88.13
57234;BME280;43090;52.604;13.318;2024-03-22T08:17:28;100996.75;;;10.23;88.10
57234;BME280;43090;52.604;13.318;2024-03-22T08:19:54;101002.53;;;10.29;88.99
57234;BME280;43090;52.604;13.318;2024-03-22T08:22:19;100996.41;;;10.27;89.20
57234;BME280;43090;52.604;13.318;2024-03-22T08:24:45;100981.69;;;10.34;88.77
57234;BME280;43090;52.604;13.318;2024-03-22T08:27:11;100975.19;;;10.39;88.29
57234;BME280;43090;52.604;13.318;2024-03-22T08:29:37;100976.84;;;10.54;87.37
57234;BME280;43090;52.604;13.318;2024-03-22T08:32:03;100975.22;;;10.52;88.46
57234;BME280;43090;52.604;13.318;2024-03-22T08:34:30;100963.16;;;10.59;87.42
57234;BME280;43090;52.604;13.318;2024-03-22T08:36:58;100964.88;;;10.60;87.36
57234;BME280;43090;52.604;13.318;2024-03-22T08:39:23;100946.03;;;10.61;86.56
57234;BME280;43090;52.604;13.318;2024-03-22T08:41:50;100936.38;;;10.59;86.89
57234;BME280;43090;52.604;13.318;2024-03-22T08:44:15;100952.16;;;10.89;86.33
57234;BME280;43090;52.604;13.318;2024-03-22T08:46:41;100922.78;;;10.62;86.39
57234;BME280;43090;52.604;13.318;2024-03-22T08:49:06;100936.81;;;10.65;86.43
57234;BME280;43090;52.604;13.318;2024-03-22T08:51:31;100938.53;;;10.66;86.50
57234;BME280;43090;52.604;13.318;2024-03-22T08:53:57;100939.78;;;10.61;86.89
57234;BME280;43090;52.604;13.318;2024-03-22T08:56:22;100944.75;;;10.80;86.75
57234;BME280;43090;52.604;13.318;2024-03-22T08:58:48;100935.97;;;10.91;84.82
57234;BME280;43090;52.604;13.318;2024-03-22T09:01:14;100924.00;;;10.83;85.88
57234;BME280;43090;52.604;13.318;2024-03-22T09:03:40;100907.69;;;10.99;84.74
57234;BME280;43090;52.604;13.318;2024-03-22T09:06:06;100910.47;;;10.85;85.45
57234;BME280;43090;52.604;13.318;2024-03-22T09:08:31;100894.84;;;10.79;85.44
57234;BME280;43090;52.604;13.318;2024-03-22T09:10:58;100912.06;;;11.26;84.46
57234;BME280;43090;52.604;13.318;2024-03-22T09:13:24;100900.63;;;10.98;84.73
57234;BME280;43090;52.604;13.318;2024-03-22T09:15:56;100899.53;;;11.01;84.83
57234;BME280;43090;52.604;13.318;2024-03-22T09:18:22;100889.38;;;10.93;85.01
57234;BME280;43090;52.604;13.318;2024-03-22T09:20:47;100898.25;;;11.07;84.70
57234;BME280;43090;52.604;13.318;2024-03-22T09:23:13;100897.06;;;11.11;85.25
57234;BME280;43090;52.604;13.318;2024-03-22T09:25:39;100892.09;;;11.30;84.08
57234;BME280;43090;52.604;13.318;2024-03-22T09:28:04;100887.03;;;11.39;84.43
57234;BME280;43090;52.604;13.318;2024-03-22T09:30:30;100885.16;;;11.15;85.34
57234;BME280;43090;52.604;13.318;2024-03-22T09:32:55;100891.63;;;11.49;83.13
57234;BME280;43090;52.604;13.318;2024-03-22T09:35:21;100875.50;;;11.62;82.77
57234;BME280;43090;52.604;13.318;2024-03-22T09:37:46;100877.81;;;11.43;82.55
57234;BME280;43090;52.604;13.318;2024-03-22T09:40:12;100879.09;;;11.50;83.03
57234;BME280;43090;52.604;13.318;2024-03-22T09:42:38;100884.91;;;11.31;82.41
57234;BME280;43090;52.604;13.318;2024-03-22T09:45:11;100891.53;;;11.51;84.05
57234;BME280;43090;52.604;13.318;2024-03-22T09:47:38;100874.97;;;11.57;82.79
57234;BME280;43090;52.604;13.318;2024-03-22T09:50:08;100892.75;;;11.71;82.76
57234;BME280;43090;52.604;13.318;2024-03-22T09:56:21;100851.94;;;11.17;83.12
57234;BME280;43090;52.604;13.318;2024-03-22T09:59:00;100836.19;;;11.13;82.97
57234;BME280;43090;52.604;13.318;2024-03-22T10:01:26;100845.91;;;11.27;83.05
57234;BME280;43090;52.604;13.318;2024-03-22T10:03:55;100863.00;;;11.50;81.95
57234;BME280;43090;52.604;13.318;2024-03-22T10:06:20;100867.16;;;11.30;82.93
57234;BME280;43090;52.604;13.318;2024-03-22T10:16:42;100811.44;;;11.09;84.16
57234;BME280;43090;52.604;13.318;2024-03-22T10:19:16;100826.03;;;11.42;83.54
57234;BME280;43090;52.604;13.318;2024-03-22T10:21:42;100844.00;;;11.53;84.34
57234;BME280;43090;52.604;13.318;2024-03-22T10:24:07;100838.06;;;11.61;82.65
57234;BME280;43090;52.604;13.318;2024-03-22T10:26:33;100829.88;;;11.51;82.66
57234;BME280;43090;52.604;13.318;2024-03-22T10:28:59;100840.22;;;11.80;81.97
57234;BME280;43090;52.604;13.318;2024-03-22T10:31:25;100823.41;;;11.78;80.93
57234;BME280;43090;52.604;13.318;2024-03-22T10:33:52;100837.16;;;11.73;82.87
57234;BME280;43090;52.604;13.318;2024-03-22T10:36:19;100826.03;;;11.91;80.13
57234;BME280;43090;52.604;13.318;2024-03-22T10:38:46;100824.78;;;12.08;79.21
57234;BME280;43090;52.604;13.318;2024-03-22T10:41:15;100840.25;;;12.40;78.71
57234;BME280;43090;52.604;13.318;2024-03-22T10:43:42;100837.66;;;12.27;79.31
57234;BME280;43090;52.604;13.318;2024-03-22T10:46:08;100840.16;;;12.17;78.88
57234;BME280;43090;52.604;13.318;2024-03-22T10:48:34;100836.34;;;12.44;78.99
57234;BME280;43090;52.604;13.318;2024-03-22T10:51:00;100834.47;;;12.22;78.32
57234;BME280;43090;52.604;13.318;2024-03-22T10:53:27;100826.53;;;12.31;77.51
57234;BME280;43090;52.604;13.318;2024-03-22T10:55:54;100824.69;;;12.21;78.21
57234;BME280;43090;52.604;13.318;2024-03-22T10:58:21;100823.91;;;12.43;77.58
57234;BME280;43090;52.604;13.318;2024-03-22T11:00:47;100813.25;;;12.30;77.83
57234;BME280;43090;52.604;13.318;2024-03-22T11:03:13;100792.84;;;12.27;78.93
57234;BME280;43090;52.604;13.318;2024-03-22T11:05:48;100804.00;;;12.57;77.50
57234;BME280;43090;52.604;13.318;2024-03-22T11:08:28;100808.03;;;12.51;76.78
57234;BME280;43090;52.604;13.318;2024-03-22T11:10:55;100799.09;;;12.39;76.57
57234;BME280;43090;52.604;13.318;2024-03-22T11:13:21;100796.53;;;12.38;78.23
57234;BME280;43090;52.604;13.318;2024-03-22T11:15:53;100788.63;;;12.36;78.54
57234;BME280;43090;52.604;13.318;2024-03-22T11:18:18;100795.91;;;12.23;77.71
57234;BME280;43090;52.604;13.318;2024-03-22T11:20:44;100797.75;;;12.33;78.15
57234;BME280;43090;52.604;13.318;2024-03-22T11:23:12;100797.03;;;12.43;77.99
57234;BME280;43090;52.604;13.318;2024-03-22T11:25:38;100798.59;;;12.34;78.24
57234;BME280;43090;52.604;13.318;2024-03-22T11:28:04;100793.94;;;12.13;79.37
57234;BME280;43090;52.604;13.318;2024-03-22T11:30:31;100801.81;;;12.04;82.32
57234;BME280;43090;52.604;13.318;2024-03-22T11:33:00;100788.44;;;12.15;84.27
57234;BME280;43090;52.604;13.318;2024-03-22T11:35:26;100794.44;;;12.19;86.55
57234;BME280;43090;52.604;13.318;2024-03-22T11:37:51;100786.72;;;12.14;85.56
57234;BME280;43090;52.604;13.318;2024-03-22T11:40:17;100783.28;;;12.00;89.85
57234;BME280;43090;52.604;13.318;2024-03-22T11:42:46;100771.00;;;11.85;88.79
57234;BME280;43090;52.604;13.318;2024-03-22T11:45:14;100774.03;;;12.05;89.32
57234;BME280;43090;52.604;13.318;2024-03-22T11:47:40;100759.03;;;11.78;91.47
57234;BME280;43090;52.604;13.318;2024-03-22T11:50:06;100759.25;;;11.99;92.90
57234;BME280;43090;52.604;13.318;2024-03-22T11:52:32;100759.13;;;12.00;92.73
57234;BME280;43090;52.604;13.318;2024-03-22T11:54:58;100764.09;;;11.94;94.58
57234;BME280;43090;52.604;13.318;2024-03-22T11:57:24;100755.34;;;11.67;95.40
57234;BME280;43090;52.604;13.318;2024-03-22T11:59:50;100751.56;;;11.70;95.09
57234;BME280;43090;52.604;13.318;2024-03-22T12:02:17;100735.47;;;11.70;96.23
57234;BME280;43090;52.604;13.318;2024-03-22T12:04:46;100746.22;;;11.70;96.15
57234;BME280;43090;52.604;13.318;2024-03-22T12:07:16;100745.56;;;11.66;99.51
57234;BME280;43090;52.604;13.318;2024-03-22T12:09:42;100738.63;;;11.40;100.00
57234;BME280;43090;52.604;13.318;2024-03-22T12:12:10;100747.47;;;11.53;100.00
57234;BME280;43090;52.604;13.318;2024-03-22T12:14:36;100745.16;;;11.48;100.00
57234;BME280;43090;52.604;13.318;2024-03-22T12:17:02;100731.63;;;11.26;100.00
57234;BME280;43090;52.604;13.318;2024-03-22T12:19:28;100720.63;;;11.42;100.00
57234;BME280;43090;52.604;13.318;2024-03-22T12:21:54;100723.09;;;11.56;100.00
57234;BME280;43090;52.604;13.318;2024-03-22T12:24:19;100721.25;;;11.21;100.00
57234;BME280;43090;52.604;13.318;2024-03-22T12:26:45;100721.13;;;11.47;100.00
57234;BME280;43090;52.604;13.318;2024-03-22T12:29:12;100720.00;;;11.38;100.00
57234;BME280;43090;52.604;13.318;2024-03-22T12:31:38;100735.78;;;11.54;100.00
57234;BME280;43090;52.604;13.318;2024-03-22T12:34:03;100731.34;;;11.42;100.00
57234;BME280;43090;52.604;13.318;2024-03-22T12:36:29;100725.25;;;11.40;100.00
57234;BME280;43090;52.604;13.318;2024-03-22T12:38:55;100717.09;;;11.17;100.00
57234;BME280;43090;52.604;13.318;2024-03-22T12:41:20;100718.53;;;11.34;100.00
57234;BME280;43090;52.604;13.318;2024-03-22T12:43:46;100705.69;;;11.26;100.00
57234;BME280;43090;52.604;13.318;2024-03-22T12:46:11;100693.69;;;11.19;100.00
57234;BME280;43090;52.604;13.318;2024-03-22T12:48:37;100698.59;;;11.25;100.00
57234;BME280;43090;52.604;13.318;2024-03-22T12:51:02;100694.06;;;11.14;100.00
57234;BME280;43090;52.604;13.318;2024-03-22T12:53:28;100690.28;;;11.41;100.00
57234;BME280;43090;52.604;13.318;2024-03-22T12:55:54;100686.25;;;11.11;100.00
57234;BME280;43090;52.604;13.318;2024-03-22T12:58:19;100691.50;;;11.13;100.00
57234;BME280;43090;52.604;13.318;2024-03-22T13:00:45;100700.66;;;10.97;100.00
57234;BME280;43090;52.604;13.318;2024-03-22T13:03:10;100674.69;;;10.74;100.00
57234;BME280;43090;52.604;13.318;2024-03-22T13:05:37;100680.69;;;11.02;100.00